createdAt,value
2019-02-17T00:01:49.788Z,96394.69
2019-02-17T00:04:18.446Z,96400.54
2019-02-17T00:06:47.077Z,96394.08
2019-02-17T00:09:15.778Z,96398.03
2019-02-17T00:11:44.394Z,96391.30
2019-02-17T00:14:12.978Z,96403.94
2019-02-17T00:16:41.558Z,96391.55
2019-02-17T00:19:10.630Z,96391.42
2019-02-17T00:21:39.209Z,96391.83
2019-02-17T00:24:08.951Z,96392.80
2019-02-17T00:26:37.529Z,96392.41
2019-02-17T00:29:06.111Z,96388.28
2019-02-17T00:31:34.692Z,96393.55
2019-02-17T00:34:03.277Z,96390.81
2019-02-17T00:36:31.940Z,96385.97
2019-02-17T00:39:00.527Z,96382.45
2019-02-17T00:41:29.098Z,96386.76
2019-02-17T00:43:57.720Z,96377.03
2019-02-17T00:46:26.299Z,96375.74
2019-02-17T00:48:54.886Z,96376.38
2019-02-17T00:51:23.550Z,96375.44
2019-02-17T00:53:52.165Z,96369.66
2019-02-17T00:56:20.750Z,96376.33
2019-02-17T00:58:49.333Z,96377.01
2019-02-17T01:01:17.914Z,96376.27
2019-02-17T01:03:46.490Z,96372.37
2019-02-17T01:06:15.275Z,96368.60
2019-02-17T01:08:43.915Z,96366.38
2019-02-17T01:11:12.573Z,96370.42
2019-02-17T01:13:41.275Z,96374.88
2019-02-17T01:16:10.777Z,96373.01
2019-02-17T01:18:39.361Z,96371.03
2019-02-17T01:21:08.444Z,96370.42
2019-02-17T01:23:37.031Z,96370.75
2019-02-17T01:26:05.612Z,96362.02
2019-02-17T01:28:34.191Z,96362.70
2019-02-17T01:31:02.874Z,96366.67
2019-02-17T01:33:31.451Z,96366.67
2019-02-17T01:36:00.034Z,96363.59
2019-02-17T01:38:28.607Z,96355.76
2019-02-17T01:40:57.182Z,96360.92
2019-02-17T01:43:25.766Z,96360.75
2019-02-17T01:45:54.368Z,96355.56
2019-02-17T01:48:22.986Z,96363.45
2019-02-17T01:50:51.562Z,96359.63
2019-02-17T01:53:20.143Z,96359.15
2019-02-17T01:55:48.760Z,96363.83
2019-02-17T01:58:17.375Z,96362.96
2019-02-17T02:00:45.955Z,96359.48
2019-02-17T02:03:14.537Z,96362.66
2019-02-17T02:05:43.132Z,96361.91
2019-02-17T02:08:11.713Z,96361.11
2019-02-17T02:10:40.295Z,96356.88
2019-02-17T02:13:09.006Z,96358.93
2019-02-17T02:15:37.582Z,96357.97
2019-02-17T02:18:06.161Z,96357.91
2019-02-17T02:20:34.792Z,96356.91
2019-02-17T02:23:03.374Z,96362.03
2019-02-17T02:25:32.012Z,96356.31
2019-02-17T02:28:00.597Z,96358.93
2019-02-17T02:30:29.180Z,96353.80
2019-02-17T02:32:57.778Z,96354.73
2019-02-17T02:35:26.459Z,96355.32
2019-02-17T02:37:55.034Z,96358.20
2019-02-17T02:40:23.616Z,96356.28
2019-02-17T02:42:52.198Z,96353.11
2019-02-17T02:45:20.785Z,96350.46
2019-02-17T02:47:49.375Z,96348.61
2019-02-17T02:50:17.945Z,96344.64
2019-02-17T02:52:46.572Z,96341.76
2019-02-17T02:55:15.150Z,96344.34
2019-02-17T02:57:43.726Z,96345.66
2019-02-17T03:00:13.204Z,96339.55
2019-02-17T03:02:41.818Z,96336.83
2019-02-17T03:05:10.901Z,96333.70
2019-02-17T03:07:39.471Z,96333.52
2019-02-17T03:10:09.747Z,96333.36
2019-02-17T03:12:38.322Z,96333.42
2019-02-17T03:15:09.861Z,96332.92
2019-02-17T03:17:38.445Z,96339.48
2019-02-17T03:20:09.233Z,96339.84
2019-02-17T03:22:38.111Z,96335.47
2019-02-17T03:25:07.331Z,96338.78
2019-02-17T03:27:35.909Z,96337.94
2019-02-17T03:30:06.598Z,96337.98
2019-02-17T03:32:35.187Z,96332.16
2019-02-17T03:35:03.755Z,96330.28
2019-02-17T03:37:32.347Z,96331.78
2019-02-17T03:40:00.988Z,96330.94
2019-02-17T03:42:29.571Z,96336.91
2019-02-17T03:44:58.169Z,96338.75
2019-02-17T03:47:26.740Z,96333.91
2019-02-17T03:49:55.316Z,96326.70
2019-02-17T03:52:23.896Z,96332.95
2019-02-17T03:54:52.504Z,96331.16
2019-02-17T03:57:21.118Z,96329.28
2019-02-17T03:59:49.711Z,96327.66
2019-02-17T04:02:18.296Z,96334.72
2019-02-17T04:04:47.030Z,96335.29
2019-02-17T04:07:15.611Z,96335.39
2019-02-17T04:09:44.188Z,96332.73
2019-02-17T04:12:12.766Z,96333.31
2019-02-17T04:14:41.382Z,96340.63
2019-02-17T04:17:10.685Z,96337.30
2019-02-17T04:19:39.264Z,96342.45
2019-02-17T04:22:08.982Z,96345.78
2019-02-17T04:24:37.563Z,96343.69
2019-02-17T04:27:06.185Z,96339.97
2019-02-17T04:29:34.762Z,96343.02
2019-02-17T04:32:03.339Z,96335.48
2019-02-17T04:34:31.927Z,96339.59
2019-02-17T04:37:00.503Z,96343.78
2019-02-17T04:39:29.084Z,96334.72
2019-02-17T04:41:57.662Z,96328.47
2019-02-17T04:44:26.267Z,96332.19
2019-02-17T04:46:54.826Z,96331.23
2019-02-17T04:49:23.405Z,96324.50
2019-02-17T04:51:51.987Z,96332.23
2019-02-17T04:54:20.581Z,96319.61
2019-02-17T04:56:49.161Z,96328.28
2019-02-17T04:59:17.826Z,96326.87
2019-02-17T05:01:46.442Z,96328.82
2019-02-17T05:04:15.021Z,96325.89
2019-02-17T05:06:43.610Z,96319.92
2019-02-17T05:09:12.179Z,96324.08
2019-02-17T05:11:40.799Z,96322.75
2019-02-17T05:14:10.117Z,96320.07
2019-02-17T05:16:38.749Z,96318.93
2019-02-17T05:19:08.363Z,96322.00
2019-02-17T05:21:36.945Z,96312.60
2019-02-17T05:24:05.522Z,96311.55
2019-02-17T05:26:34.109Z,96309.98
2019-02-17T05:29:02.682Z,96306.93
2019-02-17T05:31:31.310Z,96307.27
2019-02-17T05:33:59.879Z,96306.88
2019-02-17T05:36:28.459Z,96306.69
2019-02-17T05:38:57.040Z,96306.73
2019-02-17T05:41:25.627Z,96307.41
2019-02-17T05:43:54.200Z,96310.74
2019-02-17T05:46:22.777Z,96313.46
2019-02-17T05:48:51.354Z,96311.03
2019-02-17T05:51:19.941Z,96313.31
2019-02-17T05:53:48.601Z,96314.56
2019-02-17T05:56:17.203Z,96313.17
2019-02-17T05:58:45.783Z,96315.29
2019-02-17T06:01:14.372Z,96318.95
2019-02-17T06:03:42.991Z,96312.71
2019-02-17T06:06:11.683Z,96320.58
2019-02-17T06:08:40.258Z,96315.66
2019-02-17T06:11:09.045Z,96316.04
2019-02-17T06:13:37.664Z,96308.61
2019-02-17T06:16:07.430Z,96312.46
2019-02-17T06:18:36.014Z,96297.96
2019-02-17T06:21:04.602Z,96305.37
2019-02-17T06:23:33.175Z,96310.89
2019-02-17T06:26:01.762Z,96314.13
2019-02-17T06:28:30.338Z,96313.70
2019-02-17T06:30:58.915Z,96310.18
2019-02-17T06:33:27.499Z,96312.71
2019-02-17T06:35:56.130Z,96311.37
2019-02-17T06:38:24.711Z,96316.94
2019-02-17T06:40:53.282Z,96312.61
2019-02-17T06:43:21.868Z,96319.95
2019-02-17T06:45:50.646Z,96319.62
2019-02-17T06:48:19.229Z,96321.39
2019-02-17T06:50:47.813Z,96331.53
2019-02-17T06:53:16.395Z,96335.96
2019-02-17T06:55:46.543Z,96328.20
2019-02-17T06:58:15.123Z,96331.73
2019-02-17T07:00:44.910Z,96329.19
2019-02-17T07:03:14.393Z,96330.28
2019-02-17T07:05:50.831Z,96330.14
2019-02-17T07:08:19.431Z,96331.48
2019-02-17T07:10:48.022Z,96341.78
2019-02-17T07:13:16.862Z,96342.14
2019-02-17T07:15:45.440Z,96340.52
2019-02-17T07:18:14.066Z,96341.64
2019-02-17T07:20:42.686Z,96344.88
2019-02-17T07:23:11.397Z,96336.45
2019-02-17T07:25:41.535Z,96337.13
2019-02-17T07:28:11.186Z,96335.67
2019-02-17T07:30:39.798Z,96338.46
2019-02-17T07:33:09.045Z,96339.73
2019-02-17T07:35:37.675Z,96342.36
2019-02-17T07:38:06.328Z,96340.17
2019-02-17T07:40:34.903Z,96343.91
2019-02-17T07:43:03.490Z,96342.87
2019-02-17T07:45:32.106Z,96350.87
2019-02-17T07:48:00.687Z,96348.37
2019-02-17T07:50:29.274Z,96347.78
2019-02-17T07:52:57.859Z,96350.61
2019-02-17T07:55:26.444Z,96351.16
2019-02-17T07:57:55.018Z,96354.30
2019-02-17T08:00:23.606Z,96349.62
2019-02-17T08:02:52.187Z,96352.68
2019-02-17T08:05:20.780Z,96355.72
2019-02-17T08:07:49.362Z,96354.34
2019-02-17T08:10:17.943Z,96353.47
2019-02-17T08:12:46.570Z,96359.69
2019-02-17T08:15:15.146Z,96355.25
2019-02-17T08:17:43.819Z,96355.55
2019-02-17T08:20:12.506Z,96357.17
2019-02-17T08:22:41.086Z,96344.75
2019-02-17T08:25:10.080Z,96342.69
2019-02-17T08:27:38.664Z,96347.22
2019-02-17T08:30:13.796Z,96341.64
2019-02-17T08:32:44.071Z,96342.19
2019-02-17T08:35:13.051Z,96348.56
2019-02-17T08:37:41.634Z,96339.75
2019-02-17T08:40:11.139Z,96335.96
2019-02-17T08:42:39.997Z,96336.20
2019-02-17T08:45:10.019Z,96337.77
2019-02-17T08:47:38.597Z,96337.73
2019-02-17T08:50:10.179Z,96337.08
2019-02-17T08:52:38.759Z,96335.15
2019-02-17T08:55:09.829Z,96332.59
2019-02-17T08:57:38.413Z,96325.50
2019-02-17T09:00:10.254Z,96333.00
2019-02-17T09:02:40.742Z,96327.59
2019-02-17T09:05:10.249Z,96324.38
2019-02-17T09:07:38.832Z,96322.13
2019-02-17T09:10:12.446Z,96323.43
2019-02-17T09:12:41.030Z,96318.30
2019-02-17T09:15:11.967Z,96318.30
2019-02-17T09:17:40.539Z,96321.23
2019-02-17T09:20:10.937Z,96319.29
2019-02-17T09:22:39.651Z,96312.58
2019-02-17T09:25:12.003Z,96307.23
2019-02-17T09:27:40.606Z,96312.57
2019-02-17T09:30:12.583Z,96300.92
2019-02-17T09:32:41.264Z,96304.17
2019-02-17T09:35:10.042Z,96300.30
2019-02-17T09:37:38.733Z,96300.46
2019-02-17T09:40:09.771Z,96300.64
2019-02-17T09:42:38.459Z,96297.38
2019-02-17T09:45:14.822Z,96302.23
2019-02-17T09:47:43.522Z,96298.34
2019-02-17T09:50:13.938Z,96293.48
2019-02-17T09:52:42.517Z,96293.29
2019-02-17T09:55:12.158Z,96296.34
2019-02-17T09:57:41.286Z,96289.64
2019-02-17T10:00:15.237Z,96289.80
2019-02-17T10:02:43.926Z,96290.14
2019-02-17T10:05:13.032Z,96286.53
2019-02-17T10:07:41.613Z,96282.36
2019-02-17T10:10:13.354Z,96283.25
2019-02-17T10:12:41.931Z,96281.13
2019-02-17T10:15:13.913Z,96280.64
2019-02-17T10:17:42.493Z,96281.20
2019-02-17T10:20:13.733Z,96287.64
2019-02-17T10:22:42.326Z,96286.83
2019-02-17T10:25:11.426Z,96284.26
2019-02-17T10:27:40.106Z,96286.44
2019-02-17T10:30:14.702Z,96278.68
2019-02-17T10:32:43.313Z,96271.11
2019-02-17T10:35:12.206Z,96274.72
2019-02-17T10:37:40.785Z,96266.13
2019-02-17T10:40:18.005Z,96265.86
2019-02-17T10:42:46.585Z,96260.80
2019-02-17T10:45:15.299Z,96248.63
2019-02-17T10:47:43.953Z,96251.35
2019-02-17T10:50:13.275Z,96242.13
2019-02-17T10:52:41.854Z,96247.57
2019-02-17T10:55:12.420Z,96243.94
2019-02-17T10:57:41.001Z,96246.41
2019-02-17T11:00:22.874Z,96235.45
2019-02-17T11:02:52.746Z,96234.83
2019-02-17T11:05:21.529Z,96229.08
2019-02-17T11:07:50.217Z,96224.42
2019-02-17T11:10:18.903Z,96225.59
2019-02-17T11:12:47.591Z,96218.48
2019-02-17T11:15:20.178Z,96213.28
2019-02-17T11:17:48.852Z,96213.28
2019-02-17T11:20:17.541Z,96218.31
2019-02-17T11:22:46.225Z,96214.33
2019-02-17T11:25:14.913Z,96207.95
2019-02-17T11:27:43.601Z,96208.41
2019-02-17T11:30:16.381Z,96205.81
2019-02-17T11:32:45.068Z,96201.22
2019-02-17T11:35:13.758Z,96202.59
2019-02-17T11:37:42.442Z,96196.22
2019-02-17T11:40:12.627Z,96190.11
2019-02-17T11:42:41.350Z,96188.33
2019-02-17T11:45:15.714Z,96179.21
2019-02-17T11:47:44.456Z,96181.52
2019-02-17T11:50:15.658Z,96175.77
2019-02-17T11:52:43.786Z,96171.17
2019-02-17T11:55:14.351Z,96162.31
2019-02-17T11:57:42.992Z,96160.88
2019-02-17T12:00:18.027Z,96158.16
2019-02-17T12:02:46.712Z,96157.63
2019-02-17T12:05:15.400Z,96150.60
2019-02-17T12:07:44.085Z,96145.38
2019-02-17T12:10:12.875Z,96140.86
2019-02-17T12:12:41.560Z,96140.36
2019-02-17T12:15:12.561Z,96125.86
2019-02-17T12:17:41.186Z,96124.75
2019-02-17T12:20:34.015Z,96121.89
2019-02-17T12:23:06.963Z,96121.26
2019-02-17T12:25:42.852Z,96117.03
2019-02-17T12:28:16.175Z,96119.06
2019-02-17T12:30:46.295Z,96114.13
2019-02-17T12:33:19.368Z,96111.05
2019-02-17T12:35:46.124Z,96108.91
2019-02-17T12:38:14.811Z,96110.86
2019-02-17T12:40:43.498Z,96102.72
2019-02-17T12:43:12.285Z,96100.21
2019-02-17T12:45:42.518Z,96089.98
2019-02-17T12:48:11.301Z,96091.18
2019-02-17T12:50:39.984Z,96088.07
2019-02-17T12:53:09.081Z,96085.37
2019-02-17T12:55:39.304Z,96079.92
2019-02-17T12:58:08.501Z,96075.50
2019-02-17T13:00:37.296Z,96076.77
2019-02-17T13:03:05.975Z,96060.00
2019-02-17T13:05:34.766Z,96066.21
2019-02-17T13:08:03.451Z,96062.50
2019-02-17T13:10:32.137Z,96065.73
2019-02-17T13:13:00.826Z,96061.09
2019-02-17T13:15:30.745Z,96056.67
2019-02-17T13:18:00.968Z,96052.05
2019-02-17T13:20:29.657Z,96050.73
2019-02-17T13:22:58.352Z,96051.67
2019-02-17T13:25:27.024Z,96048.48
2019-02-17T13:27:55.709Z,96040.70
2019-02-17T13:30:25.492Z,96039.59
2019-02-17T13:32:54.104Z,96035.75
2019-02-17T13:35:24.329Z,96031.61
2019-02-17T13:37:53.091Z,96029.39
2019-02-17T13:40:21.801Z,96030.77
2019-02-17T13:42:50.488Z,96022.55
2019-02-17T13:45:19.242Z,96023.66
2019-02-17T13:47:47.862Z,96020.36
2019-02-17T13:50:17.150Z,96022.68
2019-02-17T13:52:46.066Z,96016.52
2019-02-17T13:55:16.379Z,96014.82
2019-02-17T13:57:45.267Z,96011.36
2019-02-17T14:00:20.371Z,96007.71
2019-02-17T14:02:48.993Z,96008.59
2019-02-17T14:05:17.701Z,96010.78
2019-02-17T14:07:46.374Z,96007.45
2019-02-17T14:10:15.268Z,96003.80
2019-02-17T14:12:43.941Z,96002.20
2019-02-17T14:15:16.414Z,95999.13
2019-02-17T14:17:45.000Z,95996.98
2019-02-17T14:20:13.601Z,95998.77
2019-02-17T14:22:42.193Z,95998.02
2019-02-17T14:25:11.877Z,95998.02
2019-02-17T14:27:40.464Z,95991.58
2019-02-17T14:30:13.459Z,95994.49
2019-02-17T14:32:42.136Z,95988.68
2019-02-17T14:35:11.593Z,95985.20
2019-02-17T14:37:40.255Z,95980.84
2019-02-17T14:40:13.859Z,95981.34
2019-02-17T14:42:42.438Z,95982.09
2019-02-17T14:45:15.991Z,95986.14
2019-02-17T14:47:44.575Z,95974.72
2019-02-17T14:50:13.160Z,95976.89
2019-02-17T14:52:41.756Z,95970.43
2019-02-17T14:55:12.153Z,95975.17
2019-02-17T14:57:40.756Z,95967.09
2019-02-17T15:00:17.402Z,95965.80
2019-02-17T15:02:46.124Z,95968.03
2019-02-17T15:05:14.800Z,95965.16
2019-02-17T15:07:43.386Z,95966.30
2019-02-17T15:10:13.836Z,95955.63
2019-02-17T15:12:42.496Z,95957.84
2019-02-17T15:15:16.089Z,95960.25
2019-02-17T15:17:44.672Z,95956.23
2019-02-17T15:20:18.236Z,95948.70
2019-02-17T15:22:46.820Z,95950.47
2019-02-17T15:25:15.403Z,95944.23
2019-02-17T15:27:44.056Z,95941.52
2019-02-17T15:30:15.014Z,95938.55
2019-02-17T15:32:43.599Z,95941.10
2019-02-17T15:35:12.861Z,95934.75
2019-02-17T15:37:41.444Z,95938.94
2019-02-17T15:40:15.051Z,95929.73
2019-02-17T15:42:43.689Z,95929.05
2019-02-17T15:45:13.565Z,95926.25
2019-02-17T15:47:42.147Z,95927.78
2019-02-17T15:50:12.655Z,95923.90
2019-02-17T15:52:41.239Z,95922.17
2019-02-17T15:55:12.257Z,95920.92
2019-02-17T15:57:40.855Z,95919.67
2019-02-17T16:00:16.106Z,95922.70
2019-02-17T16:02:44.689Z,95919.48
2019-02-17T16:05:13.315Z,95922.45
2019-02-17T16:07:41.904Z,95918.86
2019-02-17T16:10:12.368Z,95918.36
2019-02-17T16:12:40.952Z,95921.84
2019-02-17T16:15:23.076Z,95918.22
2019-02-17T16:17:51.663Z,95918.97
2019-02-17T16:20:20.241Z,95918.59
2019-02-17T16:22:48.834Z,95918.45
2019-02-17T16:25:17.440Z,95920.63
2019-02-17T16:27:46.106Z,95915.95
2019-02-17T16:30:22.822Z,95907.66
2019-02-17T16:32:51.410Z,95913.19
2019-02-17T16:35:19.987Z,95909.76
2019-02-17T16:37:48.717Z,95911.50
2019-02-17T16:40:20.481Z,95911.59
2019-02-17T16:42:49.131Z,95911.38
2019-02-17T16:45:17.866Z,95911.41
2019-02-17T16:47:46.462Z,95911.98
2019-02-17T16:50:17.809Z,95907.63
2019-02-17T16:52:46.597Z,95910.39
2019-02-17T16:55:15.214Z,95908.64
2019-02-17T16:57:43.797Z,95913.55
2019-02-17T17:00:16.493Z,95916.34
2019-02-17T17:02:45.164Z,95912.43
2019-02-17T17:05:13.734Z,95916.66
2019-02-17T17:07:42.513Z,95913.09
2019-02-17T17:10:14.220Z,95926.41
2019-02-17T17:12:42.886Z,95917.28
2019-02-17T17:15:12.036Z,95922.43
2019-02-17T17:17:44.540Z,95938.36
2019-02-17T17:20:18.496Z,95935.19
2019-02-17T17:22:47.198Z,95942.20
2019-02-17T17:25:15.809Z,95939.37
2019-02-17T17:27:44.397Z,95948.15
2019-02-17T17:30:19.905Z,95947.33
2019-02-17T17:32:48.488Z,95952.77
2019-02-17T17:35:17.113Z,95957.34
2019-02-17T17:37:46.699Z,95960.19
2019-02-17T17:40:16.280Z,95959.95
2019-02-17T17:42:45.011Z,95961.19
2019-02-17T17:45:18.923Z,95953.66
2019-02-17T17:47:47.564Z,95966.98
2019-02-17T17:50:16.658Z,95970.58
2019-02-17T17:52:45.244Z,95973.91
2019-02-17T17:55:14.093Z,95975.79
2019-02-17T17:57:42.670Z,95974.16
2019-02-17T18:00:15.304Z,95980.75
2019-02-17T18:02:43.992Z,95981.59
2019-02-17T18:05:13.045Z,95981.54
2019-02-17T18:07:41.633Z,95995.38
2019-02-17T18:10:15.225Z,95993.22
2019-02-17T18:12:43.804Z,95987.62
2019-02-17T18:15:14.829Z,95993.99
2019-02-17T18:17:53.467Z,95989.84
2019-02-17T18:20:14.061Z,95993.99
2019-02-17T18:22:42.645Z,95995.77
2019-02-17T18:25:13.899Z,95995.30
2019-02-17T18:27:42.493Z,95997.80
2019-02-17T18:30:22.074Z,95999.25
2019-02-17T18:32:50.653Z,95999.92
2019-02-17T18:35:20.650Z,95998.19
2019-02-17T18:37:49.587Z,96003.46
2019-02-17T18:40:20.204Z,96000.26
2019-02-17T18:42:48.770Z,95995.48
2019-02-17T18:45:17.476Z,95998.77
2019-02-17T18:47:46.175Z,96000.92
2019-02-17T18:50:18.469Z,95999.80
2019-02-17T18:52:47.056Z,96001.55
2019-02-17T18:55:15.766Z,95990.52
2019-02-17T18:57:50.081Z,95992.50
2019-02-17T19:00:25.791Z,95996.34
2019-02-17T19:02:54.420Z,95995.55
2019-02-17T19:05:31.597Z,95993.98
2019-02-17T19:07:53.408Z,95992.68
2019-02-17T19:10:21.997Z,95997.04
2019-02-17T19:12:50.598Z,95994.50
2019-02-17T19:15:20.466Z,95996.00
2019-02-17T19:17:49.122Z,96000.52
2019-02-17T19:20:31.975Z,95994.19
2019-02-17T19:23:00.560Z,95999.44
2019-02-17T19:25:29.265Z,95999.69
2019-02-17T19:27:59.468Z,95992.89
2019-02-17T19:30:28.163Z,95997.22
2019-02-17T19:32:58.377Z,95994.68
2019-02-17T19:35:27.067Z,95999.64
2019-02-17T19:37:55.651Z,96004.27
2019-02-17T19:40:24.234Z,96003.95
2019-02-17T19:42:52.830Z,96003.48
2019-02-17T19:45:21.506Z,96005.38
2019-02-17T19:47:50.093Z,96000.98
2019-02-17T19:50:18.774Z,96000.52
2019-02-17T19:52:47.565Z,95999.13
2019-02-17T19:55:16.250Z,95999.92
2019-02-17T19:57:44.936Z,95998.07
2019-02-17T20:00:18.901Z,95993.74
2019-02-17T20:02:54.835Z,95999.30
2019-02-17T20:05:37.925Z,96004.41
2019-02-17T20:08:07.489Z,96005.26
2019-02-17T20:10:36.118Z,96005.26
2019-02-17T20:13:05.315Z,96000.13
2019-02-17T20:15:35.127Z,96002.09
2019-02-17T20:18:05.354Z,96004.73
2019-02-17T20:20:34.043Z,96002.70
2019-02-17T20:23:02.726Z,96005.17
2019-02-17T20:25:31.389Z,96009.91
2019-02-17T20:27:59.975Z,96010.94
2019-02-17T20:30:28.587Z,96014.37
2019-02-17T20:32:57.266Z,96012.64
2019-02-17T20:35:25.951Z,96019.62
2019-02-17T20:37:54.542Z,96022.41
2019-02-17T20:40:23.219Z,96023.00
2019-02-17T20:42:51.905Z,96027.81
2019-02-17T20:45:22.131Z,96025.88
2019-02-17T20:47:50.815Z,96027.30
2019-02-17T20:50:19.797Z,96022.17
2019-02-17T20:52:48.402Z,96025.47
2019-02-17T20:55:16.980Z,96029.86
2019-02-17T20:57:45.704Z,96030.29
2019-02-17T21:00:16.784Z,96039.13
2019-02-17T21:02:45.392Z,96034.03
2019-02-17T21:05:14.674Z,96031.81
2019-02-17T21:07:43.274Z,96036.91
2019-02-17T21:10:13.849Z,96039.33
2019-02-17T21:12:42.494Z,96039.16
2019-02-17T21:15:13.386Z,96034.28
2019-02-17T21:17:42.013Z,96037.70
2019-02-17T21:20:12.740Z,96037.05
2019-02-17T21:22:41.455Z,96032.05
2019-02-17T21:25:12.719Z,96026.31
2019-02-17T21:27:41.985Z,96026.97
2019-02-17T21:30:18.248Z,96030.23
2019-02-17T21:32:47.325Z,96032.80
2019-02-17T21:35:16.662Z,96029.22
2019-02-17T21:37:45.340Z,96028.97
2019-02-17T21:40:14.429Z,96036.73
2019-02-17T21:42:43.012Z,96032.12
2019-02-17T21:45:14.924Z,96025.52
2019-02-17T21:47:45.195Z,96026.27
2019-02-17T21:50:14.567Z,96029.47
2019-02-17T21:52:43.180Z,96035.96
2019-02-17T21:55:13.280Z,96033.71
2019-02-17T21:57:43.525Z,96033.19
2019-02-17T22:00:20.201Z,96033.91
2019-02-17T22:02:48.912Z,96041.12
2019-02-17T22:05:17.574Z,96034.53
2019-02-17T22:07:47.487Z,96028.05
2019-02-17T22:10:19.984Z,96033.02
2019-02-17T22:12:51.042Z,96028.85
2019-02-17T22:15:20.278Z,96025.89
2019-02-17T22:17:48.888Z,96029.19
2019-02-17T22:20:17.579Z,96024.92
2019-02-17T22:22:46.262Z,96030.63
2019-02-17T22:25:17.820Z,96026.48
2019-02-17T22:27:46.502Z,96035.61
2019-02-17T22:30:15.901Z,96024.68
2019-02-17T22:32:44.574Z,96028.22
2019-02-17T22:35:13.689Z,96024.28
2019-02-17T22:37:42.270Z,96026.06
2019-02-17T22:40:15.059Z,96030.17
2019-02-17T22:42:43.715Z,96028.58
2019-02-17T22:45:13.039Z,96028.28
2019-02-17T22:47:41.724Z,96027.97
2019-02-17T22:50:17.067Z,96024.22
2019-02-17T22:52:45.960Z,96028.09
2019-02-17T22:55:14.953Z,96028.28
2019-02-17T22:57:45.175Z,96035.05
2019-02-17T23:00:23.282Z,96030.39
2019-02-17T23:02:51.972Z,96032.47
2019-02-17T23:05:20.653Z,96036.20
2019-02-17T23:07:49.339Z,96028.92
2019-02-17T23:10:18.130Z,96037.32
2019-02-17T23:12:46.715Z,96035.23
2019-02-17T23:15:17.039Z,96027.30
2019-02-17T23:17:45.726Z,96032.80
2019-02-17T23:20:14.422Z,96032.47
2019-02-17T23:22:43.097Z,96038.95
2019-02-17T23:25:12.500Z,96029.55
2019-02-17T23:27:41.186Z,96030.55
2019-02-17T23:30:11.425Z,96033.75
2019-02-17T23:32:40.097Z,96036.04
2019-02-17T23:35:09.805Z,96047.03
2019-02-17T23:37:38.491Z,96042.80
2019-02-17T23:40:11.351Z,96049.53
2019-02-17T23:42:39.960Z,96046.34
2019-02-17T23:45:11.395Z,96050.21
2019-02-17T23:47:39.996Z,96055.82
2019-02-17T23:50:13.793Z,96048.27
2019-02-17T23:52:42.696Z,96047.66
2019-02-17T23:55:12.983Z,96051.19
2019-02-17T23:57:41.603Z,96044.75
